createdAt,value
2018-04-08T00:00:52.137Z,8.57
2018-04-08T00:03:18.594Z,9.55
2018-04-08T00:05:45.017Z,8.85
2018-04-08T00:08:11.489Z,8.93
2018-04-08T00:10:37.930Z,9.70
2018-04-08T00:13:04.320Z,8.75
2018-04-08T00:15:30.670Z,9.45
2018-04-08T00:17:57.147Z,9.00
2018-04-08T00:20:23.628Z,8.85
2018-04-08T00:22:50.093Z,8.88
2018-04-08T00:25:16.558Z,8.98
2018-04-08T00:27:43.057Z,9.20
2018-04-08T00:30:09.486Z,8.98
2018-04-08T00:32:35.885Z,9.13
2018-04-08T00:35:02.352Z,8.98
2018-04-08T00:37:28.864Z,9.25
2018-04-08T00:39:55.271Z,9.63
2018-04-08T00:42:21.705Z,9.18
2018-04-08T00:44:48.144Z,8.82
2018-04-08T00:47:14.638Z,9.30
2018-04-08T00:49:41.062Z,9.35
2018-04-08T00:52:07.527Z,9.77
2018-04-08T00:54:33.992Z,8.63
2018-04-08T00:57:00.433Z,8.98
2018-04-08T00:59:26.838Z,9.73
2018-04-08T01:01:53.285Z,9.38
2018-04-08T01:04:19.737Z,9.35
2018-04-08T01:06:46.105Z,10.07
2018-04-08T01:09:12.457Z,9.70
2018-04-08T01:11:38.696Z,9.82
2018-04-08T01:14:05.091Z,9.57
2018-04-08T01:16:31.403Z,9.15
2018-04-08T01:18:58.005Z,11.82
2018-04-08T01:21:24.505Z,9.52
2018-04-08T01:23:51.027Z,9.98
2018-04-08T01:26:17.462Z,10.38
2018-04-08T01:28:43.851Z,10.50
2018-04-08T01:31:10.244Z,9.80
2018-04-08T01:33:36.696Z,9.95
2018-04-08T01:36:03.187Z,10.25
2018-04-08T01:38:29.596Z,10.20
2018-04-08T01:40:56.096Z,11.32
2018-04-08T01:43:22.585Z,10.50
2018-04-08T01:45:49.012Z,10.43
2018-04-08T01:48:15.452Z,11.05
2018-04-08T01:50:41.949Z,9.80
2018-04-08T01:53:08.405Z,10.63
2018-04-08T01:55:34.955Z,10.77
2018-04-08T01:58:01.357Z,10.35
2018-04-08T02:00:27.737Z,10.70
2018-04-08T02:02:54.284Z,11.02
2018-04-08T02:05:20.709Z,10.45
2018-04-08T02:07:47.214Z,11.23
2018-04-08T02:10:13.693Z,10.93
2018-04-08T02:12:40.148Z,10.95
2018-04-08T02:15:06.548Z,9.75
2018-04-08T02:17:32.974Z,11.05
2018-04-08T02:19:59.429Z,10.25
2018-04-08T02:22:25.891Z,10.68
2018-04-08T02:24:52.355Z,10.55
2018-04-08T02:27:18.840Z,10.88
2018-04-08T02:29:45.268Z,13.50
2018-04-08T02:32:11.686Z,13.82
2018-04-08T02:34:38.154Z,14.23
2018-04-08T02:37:04.639Z,13.55
2018-04-08T02:39:31.026Z,12.77
2018-04-08T02:41:57.376Z,13.07
2018-04-08T02:44:23.848Z,14.48
2018-04-08T02:46:50.356Z,13.13
2018-04-08T02:49:16.841Z,14.35
2018-04-08T02:51:43.270Z,13.15
2018-04-08T02:54:09.835Z,13.48
2018-04-08T02:56:36.195Z,12.35
2018-04-08T02:59:02.572Z,12.73
2018-04-08T03:01:28.944Z,12.98
2018-04-08T03:03:55.360Z,12.32
2018-04-08T03:06:21.845Z,13.20
2018-04-08T03:08:48.318Z,12.75
2018-04-08T03:11:14.707Z,12.43
2018-04-08T03:13:41.133Z,11.27
2018-04-08T03:16:07.675Z,11.93
2018-04-08T03:18:34.120Z,12.27
2018-04-08T03:21:00.612Z,11.77
2018-04-08T03:23:27.075Z,11.25
2018-04-08T03:25:53.480Z,12.30
2018-04-08T03:28:19.908Z,11.75
2018-04-08T03:30:46.434Z,12.07
2018-04-08T03:33:12.813Z,11.98
2018-04-08T03:35:39.208Z,11.80
2018-04-08T03:38:05.648Z,11.98
2018-04-08T03:40:32.105Z,12.25
2018-04-08T03:42:58.499Z,13.32
2018-04-08T03:45:24.882Z,13.13
2018-04-08T03:47:51.270Z,13.62
2018-04-08T03:50:17.621Z,13.55
2018-04-08T03:52:44.000Z,13.82
2018-04-08T03:55:10.491Z,13.80
2018-04-08T03:57:37.032Z,12.55
2018-04-08T04:00:03.548Z,11.80
2018-04-08T04:02:30.032Z,12.65
2018-04-08T04:04:56.493Z,14.02
2018-04-08T04:07:22.962Z,14.25
2018-04-08T04:09:49.352Z,15.40
2018-04-08T04:12:15.905Z,15.73
2018-04-08T04:14:42.454Z,23.12
2018-04-08T04:17:09.006Z,19.77
2018-04-08T04:19:48.078Z,17.50
2018-04-08T04:22:26.604Z,15.63
2018-04-08T04:24:55.001Z,15.23
2018-04-08T04:27:21.622Z,15.73
2018-04-08T04:29:48.058Z,15.43
2018-04-08T04:32:14.561Z,16.90
2018-04-08T04:34:40.945Z,16.02
2018-04-08T04:37:07.425Z,15.20
2018-04-08T04:39:33.890Z,15.20
2018-04-08T04:42:00.335Z,15.73
2018-04-08T04:44:26.740Z,15.30
2018-04-08T04:46:53.193Z,15.50
2018-04-08T04:49:19.655Z,15.98
2018-04-08T04:51:46.101Z,15.38
2018-04-08T04:54:12.537Z,16.20
2018-04-08T04:56:38.975Z,16.73
2018-04-08T04:59:05.399Z,16.12
2018-04-08T05:01:31.864Z,16.08
2018-04-08T05:03:58.398Z,17.55
2018-04-08T05:06:24.832Z,16.58
2018-04-08T05:08:51.239Z,16.23
2018-04-08T05:11:17.670Z,15.93
2018-04-08T05:13:44.245Z,15.85
2018-04-08T05:16:10.677Z,16.58
2018-04-08T05:18:37.077Z,16.90
2018-04-08T05:21:03.563Z,17.33
2018-04-08T05:23:29.966Z,16.65
2018-04-08T05:25:56.357Z,16.83
2018-04-08T05:28:22.777Z,17.67
2018-04-08T05:30:49.198Z,16.17
2018-04-08T05:33:15.842Z,16.45
2018-04-08T05:35:42.254Z,17.27
2018-04-08T05:38:08.738Z,15.25
2018-04-08T05:40:35.218Z,15.55
2018-04-08T05:43:01.623Z,15.90
2018-04-08T05:45:28.005Z,15.50
2018-04-08T05:47:54.390Z,14.77
2018-04-08T05:50:20.835Z,14.82
2018-04-08T05:52:47.224Z,16.02
2018-04-08T05:55:13.658Z,15.70
2018-04-08T05:57:40.181Z,17.02
2018-04-08T06:00:07.220Z,15.70
2018-04-08T06:02:33.805Z,15.93
2018-04-08T06:05:00.436Z,20.15
2018-04-08T06:07:27.846Z,18.67
2018-04-08T06:09:54.571Z,18.10
2018-04-08T06:12:20.973Z,28.27
2018-04-08T06:14:47.521Z,16.02
2018-04-08T06:17:13.932Z,16.48
2018-04-08T06:19:40.314Z,44.72
2018-04-08T06:22:07.374Z,27.77
2018-04-08T06:24:34.185Z,21.43
2018-04-08T06:27:00.686Z,17.37
2018-04-08T06:29:27.142Z,16.87
2018-04-08T06:31:53.763Z,17.33
2018-04-08T06:34:20.575Z,15.60
2018-04-08T06:36:47.437Z,15.67
2018-04-08T06:39:14.219Z,15.32
2018-04-08T06:41:40.798Z,16.87
2018-04-08T06:44:07.291Z,16.58
2018-04-08T06:46:34.000Z,15.70
2018-04-08T06:49:00.598Z,18.08
2018-04-08T06:51:27.149Z,18.50
2018-04-08T06:53:53.699Z,16.70
2018-04-08T06:56:20.209Z,18.17
2018-04-08T06:58:46.709Z,16.02
2018-04-08T07:01:13.162Z,14.18
2018-04-08T07:03:39.766Z,12.75
2018-04-08T07:06:06.247Z,14.10
2018-04-08T07:08:32.645Z,12.00
2018-04-08T07:10:59.069Z,11.48
2018-04-08T07:13:25.901Z,10.52
2018-04-08T07:15:52.344Z,10.55
2018-04-08T07:18:18.871Z,10.32
2018-04-08T07:20:45.427Z,9.93
2018-04-08T07:23:12.004Z,10.45
2018-04-08T07:25:38.737Z,10.00
2018-04-08T07:28:05.266Z,9.87
2018-04-08T07:30:31.806Z,9.47
2018-04-08T07:32:58.206Z,8.85
2018-04-08T07:35:24.632Z,8.95
2018-04-08T07:37:51.144Z,10.73
2018-04-08T07:40:17.492Z,8.43
2018-04-08T07:42:43.902Z,9.50
2018-04-08T07:45:10.294Z,10.23
2018-04-08T07:47:36.722Z,10.45
2018-04-08T07:50:03.291Z,9.57
2018-04-08T07:52:29.731Z,8.93
2018-04-08T07:54:56.263Z,10.30
2018-04-08T07:57:22.648Z,9.35
2018-04-08T07:59:49.045Z,10.38
2018-04-08T08:02:15.477Z,10.20
2018-04-08T08:04:41.884Z,9.82
2018-04-08T08:07:08.317Z,9.10
2018-04-08T08:09:34.729Z,8.70
2018-04-08T08:12:11.060Z,7.97
2018-04-08T08:14:37.489Z,8.15
2018-04-08T08:17:03.918Z,8.88
2018-04-08T08:19:30.404Z,8.27
2018-04-08T08:22:03.977Z,7.85
2018-04-08T08:24:30.422Z,7.93
2018-04-08T08:26:56.883Z,6.97
2018-04-08T08:29:23.337Z,7.10
2018-04-08T08:31:49.890Z,7.82
2018-04-08T08:34:16.392Z,8.20
2018-04-08T08:36:42.873Z,6.65
2018-04-08T08:39:09.288Z,6.70
2018-04-08T08:41:35.656Z,5.85
2018-04-08T08:44:02.101Z,6.97
2018-04-08T08:46:28.576Z,6.27
2018-04-08T08:48:55.111Z,6.93
2018-04-08T08:51:21.450Z,6.97
2018-04-08T08:53:47.883Z,5.80
2018-04-08T08:56:14.273Z,5.73
2018-04-08T08:58:40.914Z,5.13
2018-04-08T09:01:07.350Z,5.90
2018-04-08T09:03:33.789Z,6.30
2018-04-08T09:06:00.281Z,5.23
2018-04-08T09:08:26.977Z,5.17
2018-04-08T09:10:53.429Z,5.33
2018-04-08T09:13:19.974Z,4.67
2018-04-08T09:15:46.377Z,4.77
2018-04-08T09:18:12.918Z,4.93
2018-04-08T09:20:45.605Z,5.63
2018-04-08T09:23:18.173Z,4.60
2018-04-08T09:25:48.449Z,4.37
2018-04-08T09:28:15.123Z,3.57
2018-04-08T09:30:41.537Z,3.20
2018-04-08T09:33:08.022Z,2.73
2018-04-08T09:35:34.469Z,3.10
2018-04-08T09:38:00.942Z,2.80
2018-04-08T09:40:27.389Z,3.47
2018-04-08T09:42:53.811Z,3.07
2018-04-08T09:45:20.359Z,3.07
2018-04-08T09:47:46.809Z,3.83
2018-04-08T09:50:13.270Z,3.30
2018-04-08T09:52:39.702Z,3.40
2018-04-08T09:55:06.240Z,3.10
2018-04-08T09:57:33.483Z,4.30
2018-04-08T09:59:59.902Z,3.33
2018-04-08T10:02:44.122Z,3.50
2018-04-08T10:05:10.602Z,3.40
2018-04-08T10:07:37.161Z,3.40
2018-04-08T10:10:03.614Z,3.23
2018-04-08T10:12:30.203Z,3.00
2018-04-08T10:14:56.752Z,3.10
2018-04-08T10:17:23.265Z,3.13
2018-04-08T10:19:49.981Z,3.00
2018-04-08T10:22:16.504Z,2.67
2018-04-08T10:24:43.006Z,2.90
2018-04-08T10:27:09.546Z,3.40
2018-04-08T10:29:35.981Z,3.33
2018-04-08T10:32:02.680Z,3.93
2018-04-08T10:34:29.228Z,3.60
2018-04-08T10:36:55.670Z,3.73
2018-04-08T10:39:22.335Z,3.70
2018-04-08T10:41:48.691Z,4.20
2018-04-08T10:44:15.173Z,3.53
2018-04-08T10:46:41.719Z,3.20
2018-04-08T10:49:08.112Z,6.17
2018-04-08T10:51:34.640Z,4.10
2018-04-08T10:54:01.133Z,3.23
2018-04-08T10:56:27.685Z,3.40
2018-04-08T10:58:54.124Z,3.57
2018-04-08T11:01:20.753Z,3.97
2018-04-08T11:03:47.265Z,3.07
2018-04-08T11:06:13.747Z,3.20
2018-04-08T11:08:40.943Z,4.30
2018-04-08T11:11:07.539Z,3.50
2018-04-08T11:13:34.030Z,3.67
2018-04-08T11:16:00.569Z,3.83
2018-04-08T11:18:26.977Z,4.10
2018-04-08T11:20:53.470Z,4.63
2018-04-08T11:23:19.994Z,5.13
2018-04-08T11:25:46.524Z,4.47
2018-04-08T11:28:13.042Z,4.30
2018-04-08T11:30:39.502Z,4.30
2018-04-08T11:33:05.921Z,4.50
2018-04-08T11:35:32.417Z,3.73
2018-04-08T11:37:58.910Z,4.10
2018-04-08T11:40:25.402Z,4.20
2018-04-08T11:42:52.110Z,4.77
2018-04-08T11:45:18.718Z,4.60
2018-04-08T11:47:46.217Z,4.57
2018-04-08T11:50:13.264Z,4.20
2018-04-08T11:52:39.766Z,3.93
2018-04-08T11:55:06.291Z,5.30
2018-04-08T11:57:32.880Z,4.23
2018-04-08T11:59:59.369Z,4.57
2018-04-08T12:02:25.913Z,4.80
2018-04-08T12:04:52.506Z,3.97
2018-04-08T12:07:18.986Z,4.20
2018-04-08T12:09:45.601Z,4.87
2018-04-08T12:12:11.998Z,4.27
2018-04-08T12:14:38.624Z,4.03
2018-04-08T12:17:05.171Z,4.43
2018-04-08T12:19:32.302Z,5.20
2018-04-08T12:21:58.839Z,4.53
2018-04-08T12:24:25.435Z,4.77
2018-04-08T12:26:52.891Z,3.93
2018-04-08T12:29:19.330Z,4.30
2018-04-08T12:31:45.884Z,4.10
2018-04-08T12:34:12.370Z,3.80
2018-04-08T12:36:38.888Z,4.10
2018-04-08T12:39:05.674Z,47.77
2018-04-08T12:41:32.265Z,23.80
2018-04-08T12:43:58.754Z,4.37
2018-04-08T12:46:25.310Z,4.37
2018-04-08T12:48:51.825Z,4.87
2018-04-08T12:51:18.298Z,3.90
2018-04-08T12:53:44.870Z,4.07
2018-04-08T12:56:11.382Z,4.57
2018-04-08T12:58:37.961Z,4.00
2018-04-08T13:01:04.455Z,5.00
2018-04-08T13:03:31.119Z,4.60
2018-04-08T13:05:57.536Z,4.30
2018-04-08T13:08:24.014Z,4.43
2018-04-08T13:10:50.431Z,4.43
2018-04-08T13:13:16.971Z,4.87
2018-04-08T13:15:43.555Z,5.23
2018-04-08T13:18:10.158Z,4.60
2018-04-08T13:20:36.648Z,4.70
2018-04-08T13:23:03.128Z,4.30
2018-04-08T13:25:29.713Z,4.70
2018-04-08T13:27:56.274Z,4.37
2018-04-08T13:30:22.715Z,4.70
2018-04-08T13:32:49.238Z,4.20
2018-04-08T13:35:15.769Z,5.00
2018-04-08T13:37:42.313Z,4.63
2018-04-08T13:40:08.713Z,4.63
2018-04-08T13:42:35.190Z,4.53
2018-04-08T13:45:01.706Z,5.07
2018-04-08T13:47:28.246Z,4.47
2018-04-08T13:49:54.734Z,5.03
2018-04-08T13:54:54.262Z,5.20
2018-04-08T13:57:20.718Z,5.30
2018-04-08T13:59:47.212Z,4.90
2018-04-08T14:02:13.673Z,5.23
2018-04-08T14:04:40.329Z,5.50
2018-04-08T14:07:07.752Z,5.63
2018-04-08T14:09:34.329Z,5.33
2018-04-08T14:12:00.940Z,5.57
2018-04-08T14:14:27.501Z,5.63
2018-04-08T14:16:54.103Z,6.40
2018-04-08T14:19:20.674Z,6.20
2018-04-08T14:21:47.191Z,5.50
2018-04-08T14:24:13.762Z,6.23
2018-04-08T14:26:40.180Z,5.20
2018-04-08T14:29:06.701Z,6.50
2018-04-08T14:31:33.180Z,5.90
2018-04-08T14:33:59.596Z,6.80
2018-04-08T14:36:26.206Z,5.77
2018-04-08T14:38:52.681Z,6.90
2018-04-08T14:41:19.178Z,5.93
2018-04-08T14:43:45.587Z,6.77
2018-04-08T14:46:12.162Z,6.63
2018-04-08T14:48:38.715Z,6.57
2018-04-08T14:51:05.391Z,6.10
2018-04-08T14:53:31.917Z,5.87
2018-04-08T14:55:58.466Z,5.77
2018-04-08T14:58:25.125Z,6.00
2018-04-08T15:00:51.637Z,6.10
2018-04-08T15:03:18.233Z,6.60
2018-04-08T15:05:44.762Z,6.43
2018-04-08T15:08:11.267Z,6.30
2018-04-08T15:10:37.931Z,6.23
2018-04-08T15:13:04.569Z,7.17
2018-04-08T15:15:31.026Z,6.03
2018-04-08T15:17:57.646Z,6.23
2018-04-08T15:20:24.154Z,5.90
2018-04-08T15:22:50.564Z,6.30
2018-04-08T15:25:17.075Z,6.80
2018-04-08T15:27:43.541Z,6.87
2018-04-08T15:30:10.249Z,7.20
2018-04-08T15:32:36.806Z,6.40
2018-04-08T15:35:03.390Z,6.90
2018-04-08T15:37:29.921Z,7.03
2018-04-08T15:39:56.482Z,6.70
2018-04-08T15:42:23.048Z,6.90
2018-04-08T15:44:49.513Z,7.17
2018-04-08T15:47:15.955Z,6.43
2018-04-08T15:49:42.474Z,7.13
2018-04-08T15:52:09.114Z,7.10
2018-04-08T15:54:35.598Z,6.77
2018-04-08T15:57:02.216Z,6.63
2018-04-08T15:59:28.734Z,6.73
2018-04-08T16:01:55.315Z,6.60
2018-04-08T16:04:21.842Z,7.17
2018-04-08T16:06:48.349Z,6.30
2018-04-08T16:09:14.799Z,7.70
2018-04-08T16:11:41.337Z,7.50
2018-04-08T16:14:07.750Z,6.47
2018-04-08T16:16:34.193Z,6.27
2018-04-08T16:19:00.761Z,7.03
2018-04-08T16:21:27.233Z,6.77
2018-04-08T16:23:53.705Z,7.13
2018-04-08T16:26:20.165Z,7.67
2018-04-08T16:28:46.711Z,5.93
2018-04-08T16:31:13.272Z,6.97
2018-04-08T16:33:39.924Z,7.40
2018-04-08T16:36:06.485Z,6.80
2018-04-08T16:38:33.108Z,7.23
2018-04-08T16:40:59.507Z,7.10
2018-04-08T16:43:25.952Z,6.80
2018-04-08T16:45:52.438Z,6.20
2018-04-08T16:48:18.885Z,7.67
2018-04-08T16:50:45.561Z,8.47
2018-04-08T16:53:12.024Z,7.53
2018-04-08T16:55:38.557Z,7.13
2018-04-08T16:58:05.605Z,7.10
2018-04-08T17:00:32.122Z,7.47
2018-04-08T17:02:58.539Z,7.90
2018-04-08T17:05:25.809Z,7.10
2018-04-08T17:07:52.291Z,6.77
2018-04-08T17:10:18.775Z,6.47
2018-04-08T17:12:45.543Z,7.20
2018-04-08T17:15:12.050Z,7.10
2018-04-08T17:17:38.616Z,6.20
2018-04-08T17:20:05.695Z,6.30
2018-04-08T17:22:32.367Z,6.33
2018-04-08T17:24:59.096Z,6.60
2018-04-08T17:27:25.713Z,6.67
2018-04-08T17:29:52.181Z,7.20
2018-04-08T17:32:18.725Z,6.87
2018-04-08T17:34:45.094Z,6.63
2018-04-08T17:37:11.793Z,7.87
2018-04-08T17:39:38.237Z,7.67
2018-04-08T17:42:04.761Z,6.43
2018-04-08T17:44:31.405Z,6.50
2018-04-08T17:46:58.254Z,6.60
2018-04-08T17:49:24.712Z,7.13
2018-04-08T17:51:51.295Z,7.87
2018-04-08T17:54:17.776Z,7.30
2018-04-08T17:56:44.244Z,7.80
2018-04-08T17:59:10.737Z,7.50
2018-04-08T18:01:38.163Z,7.37
2018-04-08T18:04:04.642Z,6.83
2018-04-08T18:06:31.178Z,7.53
2018-04-08T18:08:57.734Z,8.57
2018-04-08T18:11:24.229Z,7.67
2018-04-08T18:13:50.741Z,8.20
2018-04-08T18:16:17.202Z,7.70
2018-04-08T18:18:43.787Z,8.10
2018-04-08T18:21:10.374Z,7.83
2018-04-08T18:23:36.958Z,8.13
2018-04-08T18:26:03.387Z,9.57
2018-04-08T18:28:29.824Z,8.93
2018-04-08T18:30:56.266Z,8.53
2018-04-08T18:33:22.968Z,8.83
2018-04-08T18:35:49.381Z,8.83
2018-04-08T18:38:15.755Z,8.73
2018-04-08T18:40:42.294Z,8.70
2018-04-08T18:43:08.709Z,8.33
2018-04-08T18:45:35.355Z,9.33
2018-04-08T18:48:01.897Z,7.83
2018-04-08T18:50:28.426Z,8.20
2018-04-08T18:52:54.885Z,8.90
2018-04-08T18:55:21.349Z,9.03
2018-04-08T18:57:47.768Z,8.57
2018-04-08T19:00:14.278Z,8.37
2018-04-08T19:02:40.763Z,8.27
2018-04-08T19:05:07.171Z,8.63
2018-04-08T19:07:33.754Z,8.40
2018-04-08T19:10:00.633Z,8.17
2018-04-08T19:12:27.092Z,8.63
2018-04-08T19:14:59.770Z,8.37
2018-04-08T19:17:32.278Z,9.87
2018-04-08T19:19:58.909Z,8.50
2018-04-08T19:22:25.581Z,7.87
2018-04-08T19:24:52.007Z,8.30
2018-04-08T19:31:58.714Z,8.43
2018-04-08T19:34:25.287Z,7.87
2018-04-08T19:36:51.818Z,8.50
2018-04-08T19:39:18.273Z,7.80
2018-04-08T19:41:44.724Z,8.67
2018-04-08T19:44:11.209Z,7.77
2018-04-08T19:46:37.640Z,8.50
2018-04-08T19:49:04.210Z,7.63
2018-04-08T19:51:30.630Z,7.50
2018-04-08T19:53:57.174Z,8.03
2018-04-08T19:56:23.729Z,7.37
2018-04-08T19:58:50.333Z,7.47
2018-04-08T20:01:16.890Z,6.80
2018-04-08T20:03:43.302Z,6.83
2018-04-08T20:06:09.877Z,7.53
2018-04-08T20:08:36.303Z,7.33
2018-04-08T20:11:02.933Z,7.27
2018-04-08T20:13:29.461Z,6.80
2018-04-08T20:15:55.957Z,7.03
2018-04-08T20:18:22.520Z,7.30
2018-04-08T20:20:49.013Z,6.80
2018-04-08T20:23:15.603Z,8.27
2018-04-08T20:25:42.096Z,7.53
2018-04-08T20:28:08.559Z,7.17
2018-04-08T20:30:34.994Z,7.10
2018-04-08T20:33:01.472Z,6.63
2018-04-08T20:35:27.957Z,7.30
2018-04-08T20:37:54.456Z,6.60
2018-04-08T20:40:20.932Z,7.00
2018-04-08T20:42:47.361Z,7.17
2018-04-08T20:45:13.787Z,7.13
2018-04-08T20:47:40.296Z,7.07
2018-04-08T20:50:06.877Z,7.10
2018-04-08T20:52:33.370Z,6.93
2018-04-08T20:54:59.841Z,6.40
2018-04-08T20:57:26.229Z,6.70
2018-04-08T20:59:52.729Z,6.25
2018-04-08T21:02:19.354Z,6.23
2018-04-08T21:04:45.895Z,6.17
2018-04-08T21:07:12.277Z,6.50
2018-04-08T21:09:38.778Z,6.23
2018-04-08T21:12:05.337Z,6.00
2018-04-08T21:14:38.927Z,5.43
2018-04-08T21:17:05.364Z,5.77
2018-04-08T21:19:31.786Z,6.23
2018-04-08T21:21:58.298Z,7.82
2018-04-08T21:24:24.792Z,5.30
2018-04-08T21:26:51.416Z,6.27
2018-04-08T21:29:17.882Z,5.33
2018-04-08T21:31:44.353Z,5.30
2018-04-08T21:34:10.918Z,5.20
2018-04-08T21:36:37.366Z,5.60
2018-04-08T21:39:03.973Z,6.05
2018-04-08T21:41:30.484Z,5.77
2018-04-08T21:43:56.961Z,5.73
2018-04-08T21:46:23.502Z,5.37
2018-04-08T21:48:50.018Z,5.87
2018-04-08T21:51:16.582Z,5.47
2018-04-08T21:53:43.032Z,5.43
2018-04-08T21:56:09.432Z,5.68
2018-04-08T21:58:35.909Z,6.32
2018-04-08T22:01:02.390Z,5.62
2018-04-08T22:03:28.879Z,6.07
2018-04-08T22:05:55.311Z,6.00
2018-04-08T22:08:21.801Z,5.85
2018-04-08T22:10:48.260Z,5.53
2018-04-08T22:13:14.723Z,5.47
2018-04-08T22:15:41.117Z,5.18
2018-04-08T22:18:07.662Z,6.30
2018-04-08T22:20:34.130Z,5.82
2018-04-08T22:23:00.575Z,5.62
2018-04-08T22:25:27.150Z,5.28
2018-04-08T22:27:53.740Z,5.45
2018-04-08T22:30:20.418Z,5.37
2018-04-08T22:32:46.964Z,5.55
2018-04-08T22:35:13.426Z,4.78
2018-04-08T22:37:39.964Z,5.15
2018-04-08T22:40:06.463Z,4.90
2018-04-08T22:42:33.031Z,5.18
2018-04-08T22:44:59.639Z,5.20
2018-04-08T22:47:26.179Z,5.32
2018-04-08T22:49:52.638Z,5.10
2018-04-08T22:52:19.253Z,5.53
2018-04-08T22:54:45.692Z,5.62
2018-04-08T22:57:12.159Z,4.95
2018-04-08T22:59:38.745Z,5.20
2018-04-08T23:02:05.238Z,5.30
2018-04-08T23:04:31.865Z,6.30
2018-04-08T23:06:58.412Z,5.50
2018-04-08T23:09:24.996Z,5.32
2018-04-08T23:11:51.489Z,5.10
2018-04-08T23:14:18.022Z,5.80
2018-04-08T23:16:44.439Z,5.30
2018-04-08T23:19:10.963Z,5.15
2018-04-08T23:21:37.425Z,5.50
2018-04-08T23:24:03.920Z,5.12
2018-04-08T23:26:30.498Z,4.80
2018-04-08T23:28:57.038Z,5.40
2018-04-08T23:31:23.598Z,5.68
2018-04-08T23:33:50.109Z,5.75
2018-04-08T23:36:16.728Z,5.32
2018-04-08T23:38:43.112Z,5.93
2018-04-08T23:41:09.521Z,5.75
2018-04-08T23:43:35.956Z,6.72
2018-04-08T23:46:02.515Z,5.70
2018-04-08T23:48:29.080Z,6.62
2018-04-08T23:50:55.505Z,6.50
2018-04-08T23:53:21.953Z,6.30
2018-04-08T23:55:49.741Z,5.70
2018-04-08T23:58:16.266Z,6.80
